Time;durP1;ratioP1;P1;durP2;ratioP2;P2;SDS_P1;SDS_P2;PMS_P1;PMS_P2;Temp;Humidity;BMP_temperature;BMP_pressure;BME280_temperature;BME280_humidity;BME280_pressure;Samples;Min_cycle;Max_cycle;Signal;HPM_P1;HPM_P2
2022/05/08 00:01:37;;;;;;;23.23;6.00;;;8.80;99.90;;;;;;5072644;28;20479;-60
2022/05/08 00:04:03;;;;;;;24.88;7.25;;;8.80;99.90;;;;;;5074518;28;20047;-60
2022/05/08 00:06:30;;;;;;;21.20;6.60;;;8.70;99.90;;;;;;5083807;28;20381;-60
2022/05/08 00:08:56;;;;;;;17.40;6.32;;;8.70;99.90;;;;;;5095834;28;20048;-60
2022/05/08 00:11:22;;;;;;;29.98;7.25;;;8.70;99.90;;;;;;5067479;28;20538;-56
2022/05/08 00:13:48;;;;;;;27.05;6.82;;;8.60;99.90;;;;;;5070567;28;20114;-56
2022/05/08 00:16:14;;;;;;;22.35;6.05;;;8.50;99.90;;;;;;5073267;28;20484;-56
2022/05/08 00:18:40;;;;;;;22.67;6.05;;;8.50;99.90;;;;;;5047976;28;20083;-56
2022/05/08 00:21:06;;;;;;;25.05;7.10;;;8.40;99.90;;;;;;5074104;28;20085;-56
2022/05/08 00:23:33;;;;;;;18.13;6.10;;;8.40;99.90;;;;;;5090205;28;20083;-56
2022/05/08 00:25:59;;;;;;;21.75;6.95;;;8.30;99.90;;;;;;5053296;28;20052;-56
2022/05/08 00:28:26;;;;;;;27.08;6.75;;;8.30;99.90;;;;;;5077848;28;20170;-55
2022/05/08 00:30:52;;;;;;;21.55;6.72;;;8.30;99.90;;;;;;5078449;28;20048;-54
2022/05/08 00:33:18;;;;;;;25.20;6.35;;;8.30;99.90;;;;;;5053619;28;20052;-55
2022/05/08 00:35:44;;;;;;;24.42;6.28;;;8.30;99.90;;;;;;5075992;28;20048;-56
2022/05/08 00:38:10;;;;;;;26.27;7.45;;;8.20;99.90;;;;;;5077636;28;20585;-55
2022/05/08 00:40:37;;;;;;;18.63;5.93;;;8.20;99.90;;;;;;5059721;28;20052;-59
2022/05/08 00:43:32;;;;;;;25.20;6.20;;;8.20;99.90;;;;;;5076904;28;20500;-59
2022/05/08 00:46:00;;;;;;;23.60;6.57;;;8.10;99.90;;;;;;5072332;28;20044;-56
2022/05/08 00:48:27;;;;;;;20.73;5.97;;;8.10;99.90;;;;;;5063861;28;20441;-56
2022/05/08 00:50:54;;;;;;;22.42;7.00;;;8.10;99.90;;;;;;5067650;28;21766;-56
2022/05/08 00:53:22;;;;;;;25.13;6.60;;;8.00;99.90;;;;;;5078098;28;20060;-56
2022/05/08 00:55:48;;;;;;;20.45;6.18;;;7.90;99.90;;;;;;5070742;28;20058;-56
2022/05/08 00:58:16;;;;;;;20.42;6.45;;;7.90;99.90;;;;;;5060926;28;20155;-56
2022/05/08 01:00:42;;;;;;;20.67;6.10;;;7.90;99.90;;;;;;5065164;28;20614;-56
2022/05/08 01:03:09;;;;;;;25.20;7.00;;;7.90;99.90;;;;;;5087134;28;20085;-54
2022/05/08 01:05:41;;;;;;;22.95;6.70;;;7.80;99.90;;;;;;5076381;28;20128;-56
2022/05/08 01:08:09;;;;;;;20.80;6.57;;;7.80;99.90;;;;;;5063686;28;20156;-55
2022/05/08 01:10:38;;;;;;;28.67;6.75;;;7.80;99.90;;;;;;5082522;28;20325;-56
2022/05/08 01:13:06;;;;;;;19.75;5.82;;;7.80;99.90;;;;;;5080868;28;20052;-56
2022/05/08 01:15:44;;;;;;;22.83;7.78;;;7.80;99.90;;;;;;5064708;28;20040;-55
2022/05/08 01:18:14;;;;;;;29.35;6.88;;;7.70;99.90;;;;;;5080328;28;20040;-55
2022/05/08 01:20:41;;;;;;;23.20;6.55;;;7.70;99.90;;;;;;5076048;28;20718;-56
2022/05/08 01:23:08;;;;;;;24.20;6.82;;;7.70;99.90;;;;;;5073995;28;20083;-56
2022/05/08 01:25:35;;;;;;;18.27;6.20;;;7.70;99.90;;;;;;5071390;28;20049;-59
2022/05/08 01:28:04;;;;;;;25.75;6.78;;;7.70;99.90;;;;;;5075573;28;20085;-55
2022/05/08 01:30:32;;;;;;;22.73;7.03;;;7.70;99.90;;;;;;5078174;28;20055;-56
2022/05/08 01:33:00;;;;;;;23.20;7.28;;;7.70;99.90;;;;;;5068556;28;20053;-54
2022/05/08 01:35:30;;;;;;;19.70;6.38;;;7.60;99.90;;;;;;5089380;28;20800;-56
2022/05/08 01:37:56;;;;;;;24.05;6.82;;;7.60;99.90;;;;;;5078924;28;20149;-54
2022/05/08 01:40:24;;;;;;;21.23;6.90;;;7.50;99.90;;;;;;5078888;28;20040;-59
2022/05/08 01:42:50;;;;;;;19.23;5.88;;;7.50;99.90;;;;;;5083654;28;20069;-59
2022/05/08 01:45:17;;;;;;;22.92;7.25;;;7.50;99.90;;;;;;5073291;28;20123;-59
2022/05/08 01:50:28;;;;;;;24.67;7.18;;;7.50;99.90;;;;;;5078559;28;20056;-59
2022/05/08 01:52:54;;;;;;;22.15;6.88;;;7.40;99.90;;;;;;5050626;28;20054;-59
2022/05/08 01:55:20;;;;;;;17.15;6.43;;;7.40;99.90;;;;;;5083054;28;20052;-59
2022/05/08 01:57:46;;;;;;;16.80;6.88;;;7.30;99.90;;;;;;5085826;28;20113;-59
2022/05/08 02:00:12;;;;;;;21.55;6.57;;;7.30;99.90;;;;;;5073713;28;20036;-59
2022/05/08 02:02:43;;;;;;;24.30;6.60;;;7.30;99.90;;;;;;5081161;28;20138;-55
2022/05/08 02:05:09;;;;;;;21.73;6.70;;;7.30;99.90;;;;;;5079957;28;20049;-56
2022/05/08 02:07:36;;;;;;;26.20;8.23;;;7.20;99.90;;;;;;5082011;28;20052;-55
2022/05/08 02:10:02;;;;;;;27.33;7.53;;;7.20;99.90;;;;;;5066879;28;20912;-53
2022/05/08 02:12:28;;;;;;;22.63;6.53;;;7.10;99.90;;;;;;5080261;28;20579;-54
2022/05/08 02:14:54;;;;;;;26.15;6.97;;;7.10;99.90;;;;;;5073601;28;20495;-55
2022/05/08 02:17:22;;;;;;;20.38;6.35;;;7.10;99.90;;;;;;5077859;28;20057;-59
2022/05/08 02:19:48;;;;;;;22.33;6.78;;;7.10;99.90;;;;;;5073422;28;20044;-59
2022/05/08 02:22:14;;;;;;;23.65;6.38;;;7.00;99.90;;;;;;5075700;28;20049;-59
2022/05/08 02:24:40;;;;;;;24.35;8.02;;;7.00;99.90;;;;;;5079754;28;20095;-59
2022/05/08 02:27:06;;;;;;;24.77;6.40;;;7.00;99.90;;;;;;5078524;28;20541;-58
2022/05/08 02:29:32;;;;;;;30.67;7.22;;;6.90;99.90;;;;;;5086300;28;20056;-59
2022/05/08 02:31:58;;;;;;;23.67;6.90;;;6.90;99.90;;;;;;5074519;28;20113;-55
2022/05/08 02:34:24;;;;;;;20.55;6.18;;;6.90;99.90;;;;;;5064891;28;20065;-53
2022/05/08 02:36:51;;;;;;;17.27;5.20;;;6.90;99.90;;;;;;5056969;28;20105;-53
2022/05/08 02:39:17;;;;;;;21.58;6.63;;;6.80;99.90;;;;;;5077449;28;20036;-59
2022/05/08 02:41:43;;;;;;;19.35;5.95;;;6.80;99.90;;;;;;5071334;28;20487;-59
2022/05/08 02:44:09;;;;;;;18.58;6.20;;;6.70;99.90;;;;;;5089857;28;20082;-59
2022/05/08 02:46:35;;;;;;;15.90;5.60;;;6.70;99.90;;;;;;5091973;28;20049;-59
2022/05/08 02:49:01;;;;;;;18.33;5.97;;;6.60;99.90;;;;;;5072407;28;20063;-58
2022/05/08 02:51:27;;;;;;;20.02;5.72;;;6.60;99.90;;;;;;5076225;28;20051;-59
2022/05/08 02:53:53;;;;;;;16.65;6.03;;;6.60;99.90;;;;;;5095819;28;20055;-58
2022/05/08 02:59:10;;;;;;;18.60;6.68;;;6.50;99.90;;;;;;5073746;28;20047;-58
2022/05/08 03:01:37;;;;;;;21.65;6.00;;;6.50;99.90;;;;;;5073474;28;20048;-58
2022/05/08 03:04:05;;;;;;;16.33;6.80;;;6.50;99.90;;;;;;5090658;28;20504;-58
2022/05/08 03:06:30;;;;;;;20.63;6.07;;;6.40;99.90;;;;;;5067278;28;20569;-59
2022/05/08 03:08:58;;;;;;;17.17;6.15;;;6.40;99.90;;;;;;5093557;28;20055;-58
2022/05/08 03:11:26;;;;;;;17.70;6.03;;;6.40;99.90;;;;;;5067544;28;20202;-54
2022/05/08 03:13:57;;;;;;;19.00;7.00;;;6.30;99.90;;;;;;5077366;28;20668;-55
2022/05/08 03:16:26;;;;;;;20.33;7.00;;;6.20;99.90;;;;;;5081600;28;20126;-55
2022/05/08 03:18:52;;;;;;;16.95;5.47;;;6.10;99.90;;;;;;5082675;28;20465;-55
2022/05/08 03:21:18;;;;;;;18.52;6.18;;;6.10;99.90;;;;;;5066800;28;20072;-55
2022/05/08 03:23:45;;;;;;;21.10;7.03;;;6.00;99.90;;;;;;5064402;28;20056;-53
2022/05/08 03:26:14;;;;;;;21.52;7.82;;;6.00;99.90;;;;;;5077740;28;20075;-53
2022/05/08 03:28:41;;;;;;;20.08;6.85;;;5.90;99.90;;;;;;5078076;28;20044;-55
2022/05/08 03:31:09;;;;;;;18.92;6.63;;;5.90;99.90;;;;;;5060196;28;20511;-52
2022/05/08 03:33:36;;;;;;;25.00;7.88;;;5.90;99.90;;;;;;5064955;28;20114;-59
2022/05/08 03:36:04;;;;;;;14.82;6.60;;;5.90;99.90;;;;;;5071413;28;20059;-58
2022/05/08 03:38:31;;;;;;;16.98;5.93;;;5.80;99.90;;;;;;5068061;28;20051;-59
2022/05/08 03:40:57;;;;;;;16.25;5.95;;;5.70;99.90;;;;;;5082114;28;20287;-59
2022/05/08 03:43:23;;;;;;;17.17;5.90;;;5.70;99.90;;;;;;5072294;28;20053;-55
2022/05/08 03:45:50;;;;;;;18.65;7.35;;;5.60;99.90;;;;;;5082102;28;20043;-55
2022/05/08 03:48:17;;;;;;;18.88;6.22;;;5.60;99.90;;;;;;5053359;28;20052;-54
2022/05/08 03:50:43;;;;;;;21.77;6.25;;;5.60;99.90;;;;;;5093012;28;20040;-56
2022/05/08 03:53:10;;;;;;;14.70;5.80;;;5.50;99.90;;;;;;5085382;28;20047;-54
2022/05/08 03:55:36;;;;;;;17.35;5.78;;;5.60;99.90;;;;;;5072924;28;20048;-53
2022/05/08 03:58:03;;;;;;;20.13;6.93;;;5.50;99.90;;;;;;5069498;28;20048;-53
2022/05/08 04:00:29;;;;;;;17.55;6.20;;;5.50;99.90;;;;;;5059790;28;20508;-50
2022/05/08 04:02:55;;;;;;;17.27;7.03;;;5.60;99.90;;;;;;5067066;28;20044;-53
2022/05/08 04:05:22;;;;;;;20.73;6.85;;;5.60;99.90;;;;;;5072996;28;20055;-55
2022/05/08 04:07:48;;;;;;;21.02;6.60;;;5.60;99.90;;;;;;5088178;28;20077;-55
2022/05/08 04:10:14;;;;;;;16.38;6.07;;;5.70;99.90;;;;;;5067466;28;20110;-54
2022/05/08 04:12:44;;;;;;;19.15;6.43;;;5.70;99.90;;;;;;5085973;28;20127;-59
2022/05/08 04:17:57;;;;;;;22.65;6.75;;;5.90;99.90;;;;;;5078138;28;19996;-55
2022/05/08 04:20:24;;;;;;;21.15;7.72;;;5.90;99.90;;;;;;5059787;28;20113;-54
2022/05/08 04:25:35;;;;;;;19.10;5.95;;;6.00;99.90;;;;;;5060714;28;20641;-55
2022/05/08 04:28:01;;;;;;;19.58;6.50;;;6.10;99.90;;;;;;5044322;28;20055;-54
2022/05/08 04:30:27;;;;;;;23.98;6.57;;;6.10;99.90;;;;;;5096426;28;20063;-54
2022/05/08 04:32:53;;;;;;;19.90;6.72;;;6.10;99.90;;;;;;5064206;28;20105;-58
2022/05/08 04:35:19;;;;;;;19.52;6.97;;;6.20;99.90;;;;;;5108114;27;20050;-58
2022/05/08 04:37:45;;;;;;;19.85;6.95;;;6.20;99.90;;;;;;5075393;28;20079;-59
2022/05/08 04:40:12;;;;;;;14.48;6.22;;;6.30;99.90;;;;;;5073011;28;20040;-54
2022/05/08 04:42:38;;;;;;;22.42;6.88;;;6.30;99.90;;;;;;5069316;28;20046;-59
2022/05/08 04:45:04;;;;;;;16.98;6.55;;;6.40;99.90;;;;;;5076552;28;20044;-59
2022/05/08 04:47:30;;;;;;;19.30;6.78;;;6.50;99.90;;;;;;5084734;28;20052;-53
2022/05/08 04:49:56;;;;;;;18.80;6.82;;;6.60;99.90;;;;;;5082282;28;20048;-58
2022/05/08 04:52:22;;;;;;;19.83;6.57;;;6.70;99.90;;;;;;5070632;28;20168;-55
2022/05/08 04:54:50;;;;;;;18.73;6.43;;;6.70;99.90;;;;;;5068988;28;20090;-53
2022/05/08 04:57:16;;;;;;;15.10;6.13;;;6.80;99.90;;;;;;5065996;28;20040;-59
2022/05/08 04:59:42;;;;;;;16.33;5.95;;;6.90;99.90;;;;;;5075244;28;20045;-58
2022/05/08 05:02:09;;;;;;;20.08;6.78;;;6.90;99.90;;;;;;5081251;28;20054;-59
2022/05/08 05:04:35;;;;;;;24.52;7.30;;;7.10;99.90;;;;;;5074826;28;20533;-59
2022/05/08 05:07:02;;;;;;;20.40;6.65;;;7.50;99.90;;;;;;5083455;28;20101;-55
2022/05/08 05:09:28;;;;;;;17.38;6.60;;;7.80;99.90;;;;;;5083430;28;20044;-55
2022/05/08 05:11:54;;;;;;;17.05;6.03;;;8.00;99.90;;;;;;5048547;28;20059;-59
2022/05/08 05:14:20;;;;;;;17.08;5.95;;;8.30;99.90;;;;;;5087451;28;20056;-58
2022/05/08 05:16:46;;;;;;;17.85;5.95;;;8.40;99.90;;;;;;5084458;28;20039;-59
2022/05/08 05:19:12;;;;;;;20.55;6.50;;;8.60;99.90;;;;;;5092058;28;20043;-56
2022/05/08 05:21:38;;;;;;;13.68;5.65;;;8.80;99.90;;;;;;5058988;28;20055;-58
2022/05/08 05:24:05;;;;;;;23.02;6.35;;;8.90;99.90;;;;;;5083039;28;20052;-54
2022/05/08 05:26:31;;;;;;;12.68;4.70;;;9.00;99.90;;;;;;5080423;28;20044;-56
2022/05/08 05:28:57;;;;;;;17.48;5.32;;;9.10;99.90;;;;;;5082079;28;20040;-54
2022/05/08 05:31:24;;;;;;;15.57;5.45;;;9.30;99.90;;;;;;5080150;28;20090;-54
2022/05/08 05:33:50;;;;;;;18.05;4.85;;;9.30;99.90;;;;;;5076401;28;20549;-58
2022/05/08 05:36:17;;;;;;;13.43;4.80;;;9.50;99.90;;;;;;5072532;28;20083;-58
2022/05/08 05:38:43;;;;;;;10.55;4.22;;;9.60;99.90;;;;;;5048591;28;20098;-55
2022/05/08 05:41:09;;;;;;;15.00;4.47;;;9.70;99.90;;;;;;5067103;28;20078;-56
2022/05/08 05:43:35;;;;;;;12.15;4.60;;;9.70;99.90;;;;;;5078739;28;20075;-58
2022/05/08 05:48:46;;;;;;;12.63;4.43;;;10.00;99.90;;;;;;5075965;28;20087;-59
2022/05/08 05:51:12;;;;;;;12.80;3.75;;;10.10;99.90;;;;;;5077047;28;20071;-59
2022/05/08 05:53:38;;;;;;;12.30;3.72;;;10.10;99.90;;;;;;5045053;28;20045;-59
2022/05/08 05:56:04;;;;;;;12.30;4.00;;;10.10;99.90;;;;;;5083980;28;20059;-58
2022/05/08 05:58:31;;;;;;;13.25;3.53;;;10.40;99.90;;;;;;5097413;28;20075;-59
2022/05/08 06:00:57;;;;;;;11.82;3.42;;;10.40;99.90;;;;;;5088045;28;20047;-59
2022/05/08 06:03:23;;;;;;;13.32;3.60;;;10.50;99.90;;;;;;5094482;28;20052;-53
2022/05/08 06:05:49;;;;;;;14.85;3.80;;;10.60;99.90;;;;;;5074195;28;20131;-55
2022/05/08 06:08:15;;;;;;;12.50;4.30;;;10.60;99.90;;;;;;5050753;28;20052;-59
2022/05/08 06:10:41;;;;;;;10.60;3.03;;;10.90;99.90;;;;;;5087732;28;20054;-59
2022/05/08 06:13:07;;;;;;;11.95;3.15;;;11.00;99.90;;;;;;5081685;28;20533;-59
2022/05/08 06:15:33;;;;;;;9.55;3.10;;;11.10;99.90;;;;;;5058116;28;20044;-59
2022/05/08 06:17:59;;;;;;;14.40;2.90;;;11.30;99.90;;;;;;5091555;28;20052;-56
2022/05/08 06:20:26;;;;;;;11.13;3.05;;;11.50;99.90;;;;;;5074124;28;20230;-56
2022/05/08 06:22:52;;;;;;;10.32;3.15;;;11.50;99.90;;;;;;5081265;28;20127;-56
2022/05/08 06:25:18;;;;;;;11.85;3.10;;;11.60;99.90;;;;;;5065566;28;20052;-56
2022/05/08 06:27:44;;;;;;;9.88;3.08;;;11.90;99.90;;;;;;5079200;28;20141;-56
2022/05/08 06:30:11;;;;;;;11.32;3.00;;;12.00;99.90;;;;;;5070147;28;20048;-56
2022/05/08 06:32:37;;;;;;;9.48;2.42;;;12.10;99.90;;;;;;5074475;28;20102;-56
2022/05/08 06:35:04;;;;;;;9.73;2.97;;;12.20;99.90;;;;;;5088067;27;20048;-55
2022/05/08 06:37:30;;;;;;;10.32;2.53;;;12.20;99.90;;;;;;5073848;28;20643;-55
2022/05/08 06:39:56;;;;;;;7.25;2.20;;;12.30;99.90;;;;;;5071916;28;20041;-55
2022/05/08 06:42:22;;;;;;;8.95;2.85;;;12.20;99.90;;;;;;5063053;28;20044;-56
2022/05/08 06:44:53;;;;;;;10.02;1.77;;;12.00;99.90;;;;;;5091088;28;20048;-59
2022/05/08 06:47:19;;;;;;;16.27;4.68;;;12.20;99.90;;;;;;5074987;28;20051;-60
2022/05/08 06:49:45;;;;;;;10.75;2.85;;;12.30;99.90;;;;;;5082114;28;20048;-60
2022/05/08 06:52:12;;;;;;;10.40;3.15;;;12.40;99.90;;;;;;5066672;28;20056;-60
2022/05/08 06:54:38;;;;;;;8.13;2.20;;;13.00;99.90;;;;;;5070360;28;20074;-60
2022/05/08 06:57:04;;;;;;;10.35;3.50;;;13.30;99.90;;;;;;5072297;28;20102;-60
2022/05/08 07:02:15;;;;;;;9.35;2.30;;;13.50;99.90;;;;;;5083284;28;20052;-60
2022/05/08 07:04:41;;;;;;;15.52;8.32;;;13.40;99.90;;;;;;5088836;28;20052;-59
2022/05/08 07:07:07;;;;;;;11.73;6.80;;;13.10;99.90;;;;;;5085470;28;20079;-60
2022/05/08 07:09:35;;;;;;;15.20;7.75;;;12.90;99.90;;;;;;5082900;28;20056;-60
2022/05/08 07:12:01;;;;;;;7.10;2.58;;;12.70;99.90;;;;;;5065105;28;20523;-60
2022/05/08 07:14:28;;;;;;;16.65;10.98;;;12.50;99.90;;;;;;5100698;28;20055;-60
2022/05/08 07:16:54;;;;;;;17.17;9.82;;;12.40;99.90;;;;;;5085893;28;20043;-60
2022/05/08 07:19:20;;;;;;;9.65;3.03;;;12.30;99.90;;;;;;5072029;28;20052;-60
2022/05/08 07:21:46;;;;;;;10.45;7.03;;;12.50;99.90;;;;;;5080362;28;20044;-60
2022/05/08 07:24:12;;;;;;;14.00;5.65;;;12.70;99.90;;;;;;5083102;28;20048;-60
2022/05/08 07:26:39;;;;;;;9.07;3.88;;;12.80;99.90;;;;;;5078264;28;20044;-60
2022/05/08 07:29:05;;;;;;;12.38;2.40;;;13.00;99.90;;;;;;5070981;28;20102;-53
2022/05/08 07:31:31;;;;;;;10.90;4.63;;;13.30;99.90;;;;;;5068964;28;20077;-57
2022/05/08 07:36:46;;;;;;;15.85;4.90;;;13.30;99.90;;;;;;5073125;28;20048;-56
2022/05/08 07:39:12;;;;;;;7.55;1.88;;;13.40;99.90;;;;;;5069988;28;20048;-56
2022/05/08 07:41:38;;;;;;;9.07;3.05;;;13.30;99.90;;;;;;5060451;28;20052;-56
2022/05/08 07:44:04;;;;;;;7.85;2.00;;;13.50;99.90;;;;;;5063097;28;20258;-57
2022/05/08 07:46:30;;;;;;;9.90;3.30;;;13.40;99.90;;;;;;5080121;28;20059;-56
2022/05/08 07:48:57;;;;;;;8.63;3.25;;;13.50;99.90;;;;;;5081695;28;20051;-56
2022/05/08 07:51:23;;;;;;;11.43;6.05;;;13.20;99.90;;;;;;5079662;28;20147;-56
2022/05/08 07:53:49;;;;;;;9.65;1.98;;;13.30;99.90;;;;;;5080267;28;20293;-55
2022/05/08 07:56:15;;;;;;;10.75;2.30;;;13.50;99.90;;;;;;5063649;28;20040;-56
2022/05/08 07:58:41;;;;;;;10.68;2.92;;;13.50;99.90;;;;;;5081803;28;20044;-56
2022/05/08 08:01:07;;;;;;;12.27;2.80;;;13.60;99.90;;;;;;5078681;28;20084;-56
2022/05/08 08:03:34;;;;;;;15.63;7.65;;;13.40;99.90;;;;;;5080251;28;20044;-56
2022/05/08 08:06:01;;;;;;;11.57;3.85;;;13.50;99.90;;;;;;5081083;28;20051;-56
2022/05/08 08:08:28;;;;;;;7.57;2.08;;;13.50;99.90;;;;;;5081706;28;20550;-59
2022/05/08 08:10:58;;;;;;;8.48;3.20;;;13.60;99.90;;;;;;5063873;28;20097;-61
2022/05/08 08:13:28;;;;;;;9.77;2.80;;;13.50;99.90;;;;;;5085353;28;20048;-61
2022/05/08 08:15:55;;;;;;;11.75;2.40;;;13.40;99.90;;;;;;5082645;28;20093;-61
2022/05/08 08:18:22;;;;;;;9.65;3.95;;;13.30;99.90;;;;;;5067404;28;20070;-61
2022/05/08 08:20:48;;;;;;;8.35;3.50;;;13.30;99.90;;;;;;5083304;28;20072;-61
2022/05/08 08:23:14;;;;;;;8.50;2.60;;;13.40;99.90;;;;;;5066679;28;20101;-61
2022/05/08 08:25:40;;;;;;;10.10;2.38;;;13.40;99.90;;;;;;5084672;28;20037;-61
2022/05/08 08:28:06;;;;;;;11.73;2.97;;;14.10;99.90;;;;;;5086108;28;20124;-61
2022/05/08 08:30:33;;;;;;;11.82;2.30;;;14.10;99.90;;;;;;5051530;28;20104;-61
2022/05/08 08:33:00;;;;;;;11.23;2.40;;;14.30;99.90;;;;;;5081439;28;20052;-63
2022/05/08 08:35:27;;;;;;;7.55;2.03;;;14.90;99.90;;;;;;5082016;28;20044;-61
2022/05/08 08:37:53;;;;;;;7.65;3.20;;;15.10;99.90;;;;;;5086177;28;20040;-62
2022/05/08 08:40:20;;;;;;;14.18;6.82;;;15.40;99.90;;;;;;5078034;28;20514;-61
2022/05/08 08:42:49;;;;;;;10.68;3.25;;;15.00;99.90;;;;;;5081362;28;20123;-61
2022/05/08 08:48:07;;;;;;;8.43;2.60;;;16.30;99.90;;;;;;5086386;28;20640;-61
2022/05/08 08:50:33;;;;;;;8.98;2.50;;;16.70;99.90;;;;;;5089220;28;20604;-61
2022/05/08 08:53:03;;;;;;;9.38;2.30;;;17.20;99.90;;;;;;5069030;28;20045;-62
2022/05/08 08:55:29;;;;;;;10.60;3.35;;;16.80;99.90;;;;;;5086221;28;20085;-61
2022/05/08 08:57:55;;;;;;;6.88;2.03;;;16.80;99.90;;;;;;5085729;28;20798;-62
2022/05/08 09:00:21;;;;;;;8.60;2.67;;;16.40;99.90;;;;;;5069694;28;20460;-62
2022/05/08 09:02:50;;;;;;;8.13;1.90;;;16.80;99.90;;;;;;5086300;28;20140;-64
2022/05/08 09:05:16;;;;;;;9.18;2.22;;;16.70;99.90;;;;;;5100818;28;20083;-62
2022/05/08 09:07:46;;;;;;;9.23;2.85;;;17.00;99.90;;;;;;5085654;28;21710;-62
2022/05/08 09:10:12;;;;;;;8.50;3.05;;;17.70;99.90;;;;;;5070533;28;20438;-62
2022/05/08 09:12:40;;;;;;;7.82;3.03;;;17.80;99.90;;;;;;5085909;28;20163;-57
2022/05/08 09:15:24;;;;;;;7.53;2.78;;;18.40;99.90;;;;;;5078320;28;20113;-57
2022/05/08 09:17:58;;;;;;;6.85;2.03;;;18.70;95.20;;;;;;5066058;28;20044;-55
2022/05/08 09:20:30;;;;;;;9.00;2.30;;;18.80;97.50;;;;;;5085202;28;20055;-54
2022/05/08 09:23:11;;;;;;;8.60;2.63;;;18.60;94.80;;;;;;5083994;28;20507;-56
2022/05/08 09:25:45;;;;;;;12.25;5.78;;;19.30;93.70;;;;;;5078402;28;20131;-56
2022/05/08 09:28:21;;;;;;;8.45;2.92;;;18.60;97.00;;;;;;5080199;28;20180;-55
2022/05/08 09:31:14;;;;;;;22.00;17.13;;;18.70;98.10;;;;;;5082147;28;20047;-56
2022/05/08 09:33:47;;;;;;;8.60;2.35;;;19.20;95.50;;;;;;5080871;28;20075;-56
2022/05/08 09:36:20;;;;;;;9.23;2.63;;;18.90;98.20;;;;;;5082424;28;20062;-56
2022/05/08 09:38:47;;;;;;;8.95;3.25;;;19.20;91.20;;;;;;5065777;28;20043;-56
2022/05/08 09:41:17;;;;;;;10.98;5.57;;;19.60;93.40;;;;;;5084665;28;20101;-55
2022/05/08 09:43:43;;;;;;;7.53;2.25;;;19.60;95.60;;;;;;5082607;28;20043;-55
2022/05/08 09:46:10;;;;;;;9.02;2.33;;;19.70;93.60;;;;;;5079701;28;20052;-56
2022/05/08 09:48:37;;;;;;;10.00;3.60;;;19.60;96.00;;;;;;5084303;28;20043;-56
2022/05/08 09:51:11;;;;;;;14.43;4.35;;;20.10;88.00;;;;;;5084396;28;20058;-56
2022/05/08 09:53:39;;;;;;;13.10;6.65;;;20.30;91.00;;;;;;5084067;28;20060;-56
2022/05/08 09:56:07;;;;;;;12.15;2.30;;;20.50;77.90;;;;;;5081378;28;20055;-56
2022/05/08 09:58:34;;;;;;;10.85;2.38;;;20.70;81.70;;;;;;5084299;28;20036;-56
2022/05/08 10:01:02;;;;;;;13.32;7.60;;;21.10;87.20;;;;;;5099051;28;20062;-57
2022/05/08 10:03:30;;;;;;;9.52;2.20;;;21.20;85.70;;;;;;5083941;28;20059;-56
2022/05/08 10:05:59;;;;;;;10.52;2.47;;;21.10;62.40;;;;;;5063162;28;20048;-56
2022/05/08 10:08:36;;;;;;;11.60;3.63;;;21.40;76.50;;;;;;5081535;28;20756;-56
2022/05/08 10:13:57;;;;;;;;;;;22.00;56.10;;;;;;5083969;28;20438;-55
2022/05/08 10:16:49;;;;;;;8.60;2.28;;;20.80;50.40;;;;;;5077064;28;19919;-56
2022/05/08 10:19:26;;;;;;;8.27;2.20;;;20.80;48.30;;;;;;5084508;28;20043;-56
2022/05/08 10:21:57;;;;;;;8.55;4.13;;;21.40;59.40;;;;;;5079509;28;20087;-56
2022/05/08 10:24:28;;;;;;;7.73;2.30;;;21.90;52.10;;;;;;5080496;28;20079;-62
2022/05/08 10:27:14;;;;;;;9.30;2.13;;;21.70;52.20;;;;;;5076097;28;20338;-62
2022/05/08 10:29:50;;;;;;;9.38;3.88;;;22.00;49.60;;;;;;5076518;28;20052;-62
2022/05/08 10:32:28;;;;;;;12.63;6.00;;;22.10;51.60;;;;;;5079054;28;20048;-56
2022/05/08 10:35:11;;;;;;;7.65;2.63;;;22.30;51.10;;;;;;5079774;28;20052;-56
2022/05/08 10:37:47;;;;;;;8.45;2.20;;;22.40;49.60;;;;;;5078758;28;20040;-62
2022/05/08 10:40:22;;;;;;;9.77;2.25;;;21.80;47.90;;;;;;5078437;28;20043;-63
2022/05/08 10:43:25;;;;;;;9.20;2.25;;;21.60;49.70;;;;;;5078866;28;20044;-62
2022/05/08 10:45:52;;;;;;;9.15;2.28;;;21.60;51.80;;;;;;5082606;28;20051;-63
2022/05/08 10:48:22;;;;;;;12.00;3.72;;;21.60;52.80;;;;;;5079722;28;20055;-63
2022/05/08 10:50:57;;;;;;;6.57;3.25;;;21.90;50.00;;;;;;5082499;28;20047;-62
2022/05/08 10:53:27;;;;;;;7.97;3.20;;;22.10;48.30;;;;;;5081454;28;20048;-62
2022/05/08 10:56:01;;;;;;;8.00;4.10;;;22.20;48.80;;;;;;5082604;28;20079;-62
2022/05/08 10:58:27;;;;;;;6.53;2.95;;;22.00;47.20;;;;;;5061547;28;20109;-62
2022/05/08 11:00:58;;;;;;;9.60;5.78;;;22.40;48.60;;;;;;5079669;28;20047;-62
2022/05/08 11:03:25;;;;;;;11.15;3.80;;;22.50;46.50;;;;;;5096963;28;20052;-63
2022/05/08 11:05:52;;;;;;;9.07;2.50;;;22.80;48.10;;;;;;5080933;28;20118;-62
2022/05/08 11:08:28;;;;;;;6.93;2.60;;;22.50;46.30;;;;;;5081916;28;20289;-62
2022/05/08 11:11:12;;;;;;;9.63;2.60;;;22.30;45.00;;;;;;5063530;28;20127;-62
2022/05/08 11:13:40;;;;;;;6.70;2.55;;;22.20;45.00;;;;;;5080366;28;20131;-64
2022/05/08 11:16:06;;;;;;;11.48;5.78;;;22.00;45.60;;;;;;5083648;28;20080;-63
2022/05/08 11:18:32;;;;;;;9.98;2.60;;;22.40;46.70;;;;;;5083604;28;20399;-63
2022/05/08 11:21:00;;;;;;;7.25;2.85;;;22.70;46.00;;;;;;5064083;28;20047;-63
2022/05/08 11:23:31;;;;;;;18.55;12.30;;;22.80;46.00;;;;;;5079030;28;20134;-61
2022/05/08 11:26:03;;;;;;;28.02;21.77;;;23.00;45.00;;;;;;5078157;28;20044;-60
2022/05/08 11:28:31;;;;;;;15.43;8.18;;;23.10;45.90;;;;;;5083755;28;20135;-61
2022/05/08 11:30:59;;;;;;;18.40;13.98;;;23.10;46.80;;;;;;5079308;28;20483;-62
2022/05/08 11:36:30;;;;;;;10.05;3.88;;;23.10;43.80;;;;;;5058478;28;20064;-62
2022/05/08 11:38:59;;;;;;;8.68;3.72;;;23.30;44.60;;;;;;5081956;28;20052;-62
2022/05/08 11:41:38;;;;;;;11.55;4.30;;;23.10;45.00;;;;;;5065161;28;20044;-63
2022/05/08 11:44:14;;;;;;;8.30;3.85;;;23.20;44.50;;;;;;5060255;28;20052;-62
2022/05/08 11:46:45;;;;;;;9.85;3.50;;;23.30;44.00;;;;;;5083801;28;20044;-62
2022/05/08 11:49:21;;;;;;;9.45;3.53;;;23.50;42.70;;;;;;5080075;28;20047;-61
2022/05/08 11:51:51;;;;;;;11.43;3.50;;;23.10;42.00;;;;;;5082824;28;20048;-57
2022/05/08 11:54:38;;;;;;;13.25;3.03;;;23.10;42.40;;;;;;5096235;28;20048;-57
2022/05/08 11:57:14;;;;;;;8.45;2.40;;;23.40;43.10;;;;;;5075505;28;20091;-57
2022/05/08 11:59:43;;;;;;;11.02;2.97;;;23.50;43.10;;;;;;5077973;28;20067;-56
2022/05/08 12:02:10;;;;;;;11.10;2.30;;;23.50;42.80;;;;;;5064917;28;20040;-63
2022/05/08 12:04:36;;;;;;;7.53;2.22;;;23.50;41.50;;;;;;5084358;28;20043;-61
2022/05/08 12:07:13;;;;;;;10.15;2.28;;;23.70;42.20;;;;;;5098053;28;20070;-61
2022/05/08 12:09:42;;;;;;;8.07;2.15;;;23.40;42.10;;;;;;5079904;28;20060;-61
2022/05/08 12:12:25;;;;;;;8.85;2.58;;;23.30;43.30;;;;;;5084303;28;20148;-67
2022/05/08 12:14:53;;;;;;;17.58;5.45;;;23.40;42.80;;;;;;5087626;28;20482;-64
2022/05/08 12:17:20;;;;;;;8.95;3.33;;;23.20;43.90;;;;;;5086937;28;20060;-58
2022/05/08 12:19:51;;;;;;;12.85;7.40;;;23.40;43.30;;;;;;5083585;28;20032;-57
2022/05/08 12:22:30;;;;;;;8.75;3.42;;;23.30;43.40;;;;;;5082415;28;20096;-57
2022/05/08 12:24:58;;;;;;;8.27;3.17;;;23.10;43.40;;;;;;5083984;28;20080;-60
2022/05/08 12:27:24;;;;;;;13.63;3.03;;;23.50;42.50;;;;;;5083579;28;20051;-57
2022/05/08 12:29:53;;;;;;;10.40;3.40;;;23.30;42.80;;;;;;5081364;28;20040;-60
2022/05/08 12:32:23;;;;;;;10.52;3.20;;;23.50;42.20;;;;;;5092679;28;20044;-60
2022/05/08 12:34:53;;;;;;;9.48;2.42;;;23.70;42.30;;;;;;5094384;28;20588;-60
2022/05/08 12:37:21;;;;;;;10.40;2.83;;;24.10;42.30;;;;;;5085195;28;20673;-61
2022/05/08 12:39:47;;;;;;;13.07;6.18;;;24.00;41.80;;;;;;5087155;28;20047;-70
2022/05/08 12:42:13;;;;;;;11.70;5.55;;;24.00;41.10;;;;;;5078464;28;20154;-58
2022/05/08 12:44:40;;;;;;;18.55;11.60;;;24.10;41.60;;;;;;5087688;28;20464;-58
2022/05/08 12:47:08;;;;;;;10.73;5.35;;;24.20;40.70;;;;;;5083502;28;20089;-57
2022/05/08 12:49:36;;;;;;;11.63;6.85;;;24.20;40.80;;;;;;5084386;28;20049;-58
2022/05/08 12:52:03;;;;;;;10.05;2.22;;;24.00;39.40;;;;;;5081328;28;20055;-57
2022/05/08 12:54:30;;;;;;;12.55;5.95;;;24.10;40.10;;;;;;5065299;28;20051;-58
2022/05/08 12:56:56;;;;;;;9.88;3.17;;;24.20;40.20;;;;;;5078979;28;20047;-57
2022/05/08 13:02:08;;;;;;;6.88;2.35;;;24.10;40.00;;;;;;5083091;27;21617;-54
2022/05/08 13:04:34;;;;;;;8.25;2.38;;;24.20;39.90;;;;;;5075180;28;20051;-51
2022/05/08 13:07:00;;;;;;;7.97;2.45;;;24.50;40.40;;;;;;5078819;28;20053;-50
2022/05/08 13:09:26;;;;;;;8.18;2.63;;;24.40;39.40;;;;;;5066769;28;20059;-49
2022/05/08 13:11:53;;;;;;;9.10;2.80;;;24.50;39.10;;;;;;5076044;28;20157;-50
2022/05/08 13:14:19;;;;;;;15.55;10.40;;;24.60;39.30;;;;;;5077336;28;20472;-61
2022/05/08 13:16:45;;;;;;;9.35;3.67;;;24.50;38.60;;;;;;5075171;28;20408;-61
2022/05/08 13:19:11;;;;;;;13.93;6.30;;;25.00;37.60;;;;;;5075405;28;20052;-61